createdAt,value
2023-04-23T00:08:21.204Z,99762.25
2023-04-23T00:23:11.793Z,99776.73
2023-04-23T00:38:02.973Z,99785.66
2023-04-23T00:52:56.309Z,99784.50
2023-04-23T01:07:49.345Z,99789.27
2023-04-23T01:22:40.767Z,99783.41
2023-04-23T01:37:32.566Z,99792.84
2023-04-23T01:52:25.301Z,99805.52
2023-04-23T02:07:17.528Z,99803.39
2023-04-23T02:22:09.820Z,99804.16
2023-04-23T02:37:02.368Z,99797.41
2023-04-23T02:51:54.903Z,99796.70
2023-04-23T03:09:20.187Z,99797.09
2023-04-23T03:11:46.856Z,99791.44
2023-04-23T03:40:56.652Z,99802.19
2023-04-23T04:10:41.460Z,99821.64
2023-04-23T04:25:32.637Z,99809.22
2023-04-23T04:40:24.204Z,99810.55
2023-04-23T04:55:16.317Z,99808.02
2023-04-23T05:25:16.849Z,99808.86
2023-04-23T07:39:56.919Z,99758.52
2023-04-23T07:54:50.301Z,99750.69
2023-04-23T09:09:16.691Z,99700.52
2023-04-23T09:24:11.885Z,99682.73
2023-04-23T09:39:03.745Z,99655.80
2023-04-23T09:53:56.727Z,99634.80
2023-04-23T10:08:49.656Z,99620.70
2023-04-23T10:23:42.576Z,99611.29
2023-04-23T10:38:35.233Z,99588.59
2023-04-23T10:53:27.101Z,99586.47
2023-04-23T11:08:20.251Z,99559.46
2023-04-23T11:23:11.486Z,99531.53
2023-04-23T11:38:03.849Z,99506.93
2023-04-23T11:52:57.361Z,99490.25
2023-04-23T12:07:49.335Z,99454.02
2023-04-23T12:22:40.199Z,99427.27
2023-04-23T12:37:32.771Z,99406.89
2023-04-23T12:52:25.279Z,99387.14
2023-04-23T13:07:17.898Z,99365.99
2023-04-23T13:22:11.887Z,99337.63
2023-04-23T13:37:05.998Z,99312.26
2023-04-23T13:51:59.466Z,99275.48
2023-04-23T14:06:50.706Z,99259.50
2023-04-23T14:21:42.816Z,99219.17
2023-04-23T14:36:34.561Z,99209.37
2023-04-23T14:51:27.901Z,99192.08
2023-04-23T15:36:03.133Z,99169.12
2023-04-23T15:50:48.588Z,99243.84
2023-04-23T16:05:35.418Z,99228.01
2023-04-23T16:50:10.407Z,99308.75
2023-04-23T17:51:05.009Z,99248.58
2023-04-23T18:06:04.560Z,99248.59
2023-04-23T18:20:56.401Z,99258.33
2023-04-23T18:35:49.024Z,99293.70
2023-04-23T18:50:42.879Z,99338.08
2023-04-23T19:05:34.338Z,99350.11
2023-04-23T19:20:24.230Z,99371.50
2023-04-23T19:35:15.079Z,99357.78
2023-04-23T19:50:07.400Z,99319.06
2023-04-23T20:04:59.128Z,99319.69
2023-04-23T20:19:49.806Z,99354.20
2023-04-23T20:34:40.349Z,99362.69
2023-04-23T20:49:31.626Z,99361.52
2023-04-23T21:04:24.165Z,99353.92
2023-04-23T21:34:22.901Z,99343.36
2023-04-23T21:49:13.057Z,99342.75
2023-04-23T22:04:13.852Z,99332.47
2023-04-23T22:19:04.421Z,99333.27
2023-04-23T22:33:56.516Z,99309.27
2023-04-23T22:48:49.943Z,99322.44
2023-04-23T23:03:39.811Z,99338.66
2023-04-23T23:18:31.666Z,99330.75
2023-04-23T23:33:23.768Z,99324.31
2023-04-23T23:48:14.330Z,99285.05
